Boyntonville, New York
Current Conditions -  °F | °C
As of 12:54 PM on Friday 19 Dec 2014 (Local Time) from KDDH Reporting Station
Overcast Overcast  
Wind Chill: 23°   Ceiling: 2600
Heat Index: 29°   Visibility: 10mi
Dew Point: 20°   Wind: 6mph
Humidity: 69%   Direction: 320°NW
Pressure: 29.99"   Gusts: NA
Location:  42.8782°N, 73.3625°W
Report Text: KDDH 191754Z AUTO 32005KT 10SM OVC026 M02/M07 A2999 RMK AO2 SLP164 T10171067 11011 21022 56005
Loading
Personal Weather Stations






























Interactive Weather Map New forecast layout! Learn more

10-Day Weather Forecast

Advertisements
Track Severe Weather on mobile